Time,TemperatureF,DewpointF,PressureIn,WindDirection,WindDirectionDegrees,WindSpeedMPH,WindSpeedGustMPH,Humidity,HourlyPrecipIn,Conditions,Clouds,dailyrainin,SoftwareType,DateUTC
2013-03-28 00:10:00,54.5,32.0,30.19,South,175,9.0,13.0,42,0.00,,,0.00,weatherlink.com 1.10,2013-03-28 05:10:00,
2013-03-28 00:25:00,54.2,31.0,30.19,South,180,5.0,12.0,42,0.00,,,0.00,weatherlink.com 1.10,2013-03-28 05:25:00,
2013-03-28 00:40:00,53.9,31.0,30.19,SSE,167,6.0,11.0,42,0.00,,,0.00,weatherlink.com 1.10,2013-03-28 05:40:00,
2013-03-28 00:55:00,53.7,31.0,30.19,SSE,166,5.0,11.0,42,0.00,,,0.00,weatherlink.com 1.10,2013-03-28 05:55:00,
2013-03-28 01:10:00,53.5,31.0,30.19,SSE,165,5.0,11.0,42,0.00,,,0.00,weatherlink.com 1.10,2013-03-28 06:10:00,
2013-03-28 01:25:00,51.5,31.0,30.20,SSE,149,5.0,6.0,45,0.00,,,0.00,weatherlink.com 1.10,2013-03-28 06:25:00,
2013-03-28 01:40:00,51.4,31.0,30.20,SSE,151,5.0,7.0,46,0.00,,,0.00,weatherlink.com 1.10,2013-03-28 06:40:00,
2013-03-28 01:55:00,51.8,31.0,30.19,SSE,160,6.0,12.0,45,0.00,,,0.00,weatherlink.com 1.10,2013-03-28 06:55:00,
2013-03-28 02:10:00,51.9,31.0,30.19,SSE,157,9.0,14.0,45,0.00,,,0.00,weatherlink.com 1.10,2013-03-28 07:10:00,
2013-03-28 02:24:00,51.6,31.0,30.19,SE,146,6.0,12.0,45,0.00,,,0.00,weatherlink.com 1.10,2013-03-28 07:24:00,
2013-03-28 02:40:00,50.6,31.0,30.19,SSE,155,5.0,11.0,48,0.00,,,0.00,weatherlink.com 1.10,2013-03-28 07:40:00,
2013-03-28 02:55:00,50.1,31.0,30.19,SSE,159,3.0,9.0,49,0.00,,,0.00,weatherlink.com 1.10,2013-03-28 07:55:00,
2013-03-28 03:10:00,49.8,32.0,30.18,SE,140,9.0,9.0,50,0.00,,,0.00,weatherlink.com 1.10,2013-03-28 08:10:00,
2013-03-28 03:25:00,49.6,31.0,30.18,SE,146,4.0,9.0,50,0.00,,,0.00,weatherlink.com 1.10,2013-03-28 08:25:00,
2013-03-28 03:40:00,49.2,32.0,30.18,SE,134,5.0,10.0,51,0.00,,,0.00,weatherlink.com 1.10,2013-03-28 08:40:00,
2013-03-28 03:55:00,48.7,32.0,30.18,SE,144,6.0,8.0,52,0.00,,,0.00,weatherlink.com 1.10,2013-03-28 08:55:00,
2013-03-28 04:10:00,48.3,32.0,30.18,SSE,156,5.0,9.0,53,0.00,,,0.00,weatherlink.com 1.10,2013-03-28 09:10:00,
2013-03-28 04:25:00,48.1,32.0,30.18,SSE,150,4.0,7.0,54,0.00,,,0.00,weatherlink.com 1.10,2013-03-28 09:25:00,
2013-03-28 04:40:00,48.7,32.0,30.18,SSE,151,10.0,11.0,53,0.00,,,0.00,weatherlink.com 1.10,2013-03-28 09:40:00,
2013-03-28 04:55:00,49.0,32.0,30.18,SSE,156,5.0,10.0,53,0.00,,,0.00,weatherlink.com 1.10,2013-03-28 09:55:00,
2013-03-28 05:10:00,48.1,32.0,30.18,SSE,149,7.0,7.0,55,0.00,,,0.00,weatherlink.com 1.10,2013-03-28 10:10:00,
2013-03-28 05:25:00,48.5,32.0,30.18,SSE,153,6.0,9.0,54,0.00,,,0.00,weatherlink.com 1.10,2013-03-28 10:25:00,
2013-03-28 05:41:00,48.2,33.0,30.19,SSE,150,7.0,10.0,55,0.00,,,0.00,weatherlink.com 1.10,2013-03-28 10:41:00,
2013-03-28 05:56:00,48.2,33.0,30.18,SSE,159,7.0,11.0,55,0.00,,,0.00,weatherlink.com 1.10,2013-03-28 10:56:00,
2013-03-28 06:11:00,48.2,33.0,30.19,SE,141,9.0,10.0,55,0.00,,,0.00,weatherlink.com 1.10,2013-03-28 11:11:00,
2013-03-28 06:26:00,47.8,33.0,30.19,SSE,153,4.0,9.0,56,0.00,,,0.00,weatherlink.com 1.10,2013-03-28 11:26:00,
2013-03-28 06:41:00,47.8,33.0,30.19,SE,145,6.0,9.0,57,0.00,,,0.00,weatherlink.com 1.10,2013-03-28 11:41:00,
2013-03-28 06:56:00,47.1,33.0,30.20,SSE,162,2.0,7.0,58,0.00,,,0.00,weatherlink.com 1.10,2013-03-28 11:56:00,
2013-03-28 07:26:00,46.3,33.0,30.20,SSE,148,4.0,7.0,61,0.00,,,0.00,weatherlink.com 1.10,2013-03-28 12:26:00,
2013-03-28 07:41:00,46.7,34.0,30.21,SSE,153,3.0,8.0,62,0.00,,,0.00,weatherlink.com 1.10,2013-03-28 12:41:00,
2013-03-28 08:41:00,50.4,36.0,30.22,SSE,158,10.0,13.0,59,0.00,,,0.00,weatherlink.com 1.10,2013-03-28 13:41:00,
2013-03-28 08:56:00,51.2,38.0,30.22,South,171,10.0,17.0,60,0.00,,,0.00,weatherlink.com 1.10,2013-03-28 13:56:00,
2013-03-28 09:11:00,52.0,38.0,30.22,SSW,194,10.0,16.0,60,0.00,,,0.00,weatherlink.com 1.10,2013-03-28 14:11:00,
2013-03-28 09:26:00,53.3,40.0,30.22,SSE,165,7.0,15.0,60,0.00,,,0.00,weatherlink.com 1.10,2013-03-28 14:26:00,
2013-03-28 09:56:00,55.8,42.0,30.23,South,184,12.0,20.0,61,0.00,,,0.00,weatherlink.com 1.10,2013-03-28 14:56:00,
2013-03-28 10:26:00,57.8,44.0,30.23,South,171,11.0,17.0,61,0.00,,,0.00,weatherlink.com 1.10,2013-03-28 15:26:00,
2013-03-28 10:56:00,59.4,46.0,30.23,SSW,212,7.0,18.0,61,0.00,,,0.00,weatherlink.com 1.10,2013-03-28 15:56:00,
2013-03-28 11:11:00,60.8,47.0,30.22,South,177,13.0,18.0,60,0.00,,,0.00,weatherlink.com 1.10,2013-03-28 16:11:00,
2013-03-28 11:26:00,61.7,47.0,30.23,South,182,12.0,16.0,59,0.00,,,0.00,weatherlink.com 1.10,2013-03-28 16:26:00,
2013-03-28 11:41:00,61.8,48.0,30.23,South,180,16.0,17.0,61,0.00,,,0.00,weatherlink.com 1.10,2013-03-28 16:41:00,
2013-03-28 11:56:00,62.5,48.0,30.22,SE,139,11.0,17.0,59,0.00,,,0.00,weatherlink.com 1.10,2013-03-28 16:56:00,
2013-03-28 12:11:00,63.2,48.0,30.22,SSE,167,9.0,17.0,59,0.00,,,0.00,weatherlink.com 1.10,2013-03-28 17:11:00,
2013-03-28 12:41:00,63.6,49.0,30.21,South,184,11.0,15.0,60,0.00,,,0.00,weatherlink.com 1.10,2013-03-28 17:41:00,
2013-03-28 12:56:00,63.8,49.0,30.20,SSE,165,11.0,18.0,60,0.00,,,0.00,weatherlink.com 1.10,2013-03-28 17:56:00,
2013-03-28 13:11:00,65.5,50.0,30.20,SSE,160,9.0,17.0,57,0.00,,,0.00,weatherlink.com 1.10,2013-03-28 18:11:00,
2013-03-28 13:41:00,65.8,51.0,30.18,South,178,9.0,15.0,59,0.00,,,0.00,weatherlink.com 1.10,2013-03-28 18:41:00,
2013-03-28 13:56:00,66.7,51.0,30.17,SE,146,17.0,19.0,58,0.00,,,0.00,weatherlink.com 1.10,2013-03-28 18:56:00,
2013-03-28 14:11:00,67.2,51.0,30.16,South,180,10.0,17.0,57,0.00,,,0.00,weatherlink.com 1.10,2013-03-28 19:11:00,
2013-03-28 14:27:00,67.9,51.0,30.16,SE,131,14.0,19.0,56,0.00,,,0.00,weatherlink.com 1.10,2013-03-28 19:27:00,
2013-03-28 14:41:00,68.8,51.0,30.15,SE,146,14.0,21.0,54,0.00,,,0.00,weatherlink.com 1.10,2013-03-28 19:41:00,
2013-03-28 14:56:00,69.5,52.0,30.14,SSE,148,12.0,25.0,54,0.00,,,0.00,weatherlink.com 1.10,2013-03-28 19:56:00,
2013-03-28 15:11:00,69.4,52.0,30.13,SE,145,14.0,20.0,54,0.00,,,0.00,weatherlink.com 1.10,2013-03-28 20:11:00,
2013-03-28 15:26:00,69.8,51.0,30.13,SSE,163,7.0,20.0,52,0.00,,,0.00,weatherlink.com 1.10,2013-03-28 20:26:00,
2013-03-28 15:42:00,70.5,51.0,30.12,SSW,202,13.0,19.0,51,0.00,,,0.00,weatherlink.com 1.10,2013-03-28 20:42:00,
2013-03-28 15:57:00,70.7,51.0,30.12,SSE,156,11.0,19.0,50,0.00,,,0.00,weatherlink.com 1.10,2013-03-28 20:57:00,
2013-03-28 16:12:00,70.8,51.0,30.11,South,175,12.0,18.0,49,0.00,,,0.00,weatherlink.com 1.10,2013-03-28 21:12:00,
2013-03-28 16:27:00,71.4,51.0,30.11,South,185,15.0,23.0,48,0.00,,,0.00,weatherlink.com 1.10,2013-03-28 21:27:00,
2013-03-28 16:42:00,71.1,50.0,30.10,SE,142,12.0,20.0,47,0.00,,,0.00,weatherlink.com 1.10,2013-03-28 21:42:00,
2013-03-28 16:57:00,72.3,51.0,30.10,South,186,18.0,22.0,48,0.00,,,0.00,weatherlink.com 1.10,2013-03-28 21:57:00,
2013-03-28 17:12:00,71.3,51.0,30.10,SSE,158,14.0,20.0,49,0.00,,,0.00,weatherlink.com 1.10,2013-03-28 22:12:00,
2013-03-28 17:27:00,71.3,50.0,30.10,South,180,12.0,22.0,48,0.00,,,0.00,weatherlink.com 1.10,2013-03-28 22:27:00,
2013-03-28 17:42:00,71.1,51.0,30.10,SSE,152,14.0,17.0,49,0.00,,,0.00,weatherlink.com 1.10,2013-03-28 22:42:00,
2013-03-28 17:57:00,70.6,51.0,30.10,SSE,159,14.0,19.0,50,0.00,,,0.00,weatherlink.com 1.10,2013-03-28 22:57:00,
2013-03-28 18:12:00,70.5,51.0,30.10,South,189,18.0,23.0,51,0.00,,,0.00,weatherlink.com 1.10,2013-03-28 23:12:00,
2013-03-28 18:27:00,70.4,51.0,30.10,SSE,147,14.0,21.0,51,0.00,,,0.00,weatherlink.com 1.10,2013-03-28 23:27:00,
2013-03-28 18:42:00,69.6,51.0,30.10,South,169,16.0,22.0,52,0.00,,,0.00,weatherlink.com 1.10,2013-03-28 23:42:00,
2013-03-28 18:57:00,69.1,51.0,30.10,SSE,155,11.0,23.0,53,0.00,,,0.00,weatherlink.com 1.10,2013-03-28 23:57:00,
2013-03-28 19:12:00,68.6,51.0,30.10,SSE,149,9.0,17.0,53,0.00,,,0.00,weatherlink.com 1.10,2013-03-29 00:12:00,
2013-03-28 19:27:00,68.1,51.0,30.11,SSE,162,9.0,14.0,55,0.00,,,0.00,weatherlink.com 1.10,2013-03-29 00:27:00,
2013-03-28 19:42:00,67.7,51.0,30.11,SSE,162,6.0,11.0,56,0.00,,,0.00,weatherlink.com 1.10,2013-03-29 00:42:00,
2013-03-28 19:57:00,67.2,51.0,30.12,South,190,7.0,12.0,57,0.00,,,0.00,weatherlink.com 1.10,2013-03-29 00:57:00,
2013-03-28 20:12:00,66.5,52.0,30.12,SSE,158,10.0,12.0,59,0.00,,,0.00,weatherlink.com 1.10,2013-03-29 01:12:00,
2013-03-28 20:27:00,66.1,51.0,30.13,South,173,7.0,10.0,59,0.00,,,0.00,weatherlink.com 1.10,2013-03-29 01:27:00,
2013-03-28 20:42:00,65.9,51.0,30.13,SSE,167,7.0,11.0,60,0.00,,,0.00,weatherlink.com 1.10,2013-03-29 01:42:00,
2013-03-28 20:57:00,65.5,52.0,30.14,South,184,4.0,10.0,61,0.00,,,0.00,weatherlink.com 1.10,2013-03-29 01:57:00,
2013-03-28 21:12:00,65.2,51.0,30.14,South,172,5.0,7.0,61,0.00,,,0.00,weatherlink.com 1.10,2013-03-29 02:12:00,
2013-03-28 21:27:00,64.9,51.0,30.14,SSE,167,3.0,5.0,62,0.00,,,0.00,weatherlink.com 1.10,2013-03-29 02:27:00,
2013-03-28 21:42:00,64.4,51.0,30.15,SSE,164,4.0,6.0,62,0.00,,,0.00,weatherlink.com 1.10,2013-03-29 02:42:00,
2013-03-28 21:57:00,64.1,51.0,30.15,South,183,7.0,7.0,63,0.00,,,0.00,weatherlink.com 1.10,2013-03-29 02:57:00,
2013-03-28 22:12:00,63.9,51.0,30.15,SSE,157,7.0,10.0,63,0.00,,,0.00,weatherlink.com 1.10,2013-03-29 03:12:00,
2013-03-28 22:27:00,63.7,51.0,30.15,SSE,162,6.0,11.0,63,0.00,,,0.00,weatherlink.com 1.10,2013-03-29 03:27:00,
2013-03-28 22:42:00,63.2,51.0,30.15,South,171,4.0,10.0,64,0.00,,,0.00,weatherlink.com 1.10,2013-03-29 03:42:00,
2013-03-28 22:57:00,63.0,51.0,30.15,South,183,5.0,8.0,65,0.00,,,0.00,weatherlink.com 1.10,2013-03-29 03:57:00,
2013-03-28 23:12:00,62.6,51.0,30.15,South,169,3.0,6.0,66,0.00,,,0.00,weatherlink.com 1.10,2013-03-29 04:12:00,
2013-03-28 23:27:00,62.3,51.0,30.15,South,179,6.0,9.0,66,0.00,,,0.00,weatherlink.com 1.10,2013-03-29 04:27:00,
2013-03-28 23:42:00,61.6,51.0,30.15,South,171,4.0,7.0,68,0.00,,,0.00,weatherlink.com 1.10,2013-03-29 04:42:00,
2013-03-28 23:57:00,61.4,51.0,30.15,SSE,163,6.0,8.0,69,0.00,,,0.00,weatherlink.com 1.10,2013-03-29 04:57:00,